sensor_id;sensor_type;location;lat;lon;timestamp;P1;durP1;ratioP1;P2;durP2;ratioP2
77854;SDS011;67046;50.088;14.336;2023-06-22T00:00:21;9.80;;;6.00;;
77854;SDS011;67046;50.088;14.336;2023-06-22T00:01:13;10.30;;;6.10;;
77854;SDS011;67046;50.088;14.336;2023-06-22T00:01:45;7.10;;;6.00;;
77854;SDS011;67046;50.088;14.336;2023-06-22T00:02:18;8.30;;;5.70;;
77854;SDS011;67046;50.088;14.336;2023-06-22T00:02:50;9.60;;;5.60;;
77854;SDS011;67046;50.088;14.336;2023-06-22T00:03:22;7.50;;;5.80;;
77854;SDS011;67046;50.088;14.336;2023-06-22T00:03:56;8.30;;;5.50;;
77854;SDS011;67046;50.088;14.336;2023-06-22T00:04:27;8.00;;;5.60;;
77854;SDS011;67046;50.088;14.336;2023-06-22T00:04:59;9.20;;;5.90;;
77854;SDS011;67046;50.088;14.336;2023-06-22T00:05:31;12.50;;;6.10;;
77854;SDS011;67046;50.088;14.336;2023-06-22T00:06:03;6.90;;;5.70;;
77854;SDS011;67046;50.088;14.336;2023-06-22T00:06:35;12.20;;;6.10;;
77854;SDS011;67046;50.088;14.336;2023-06-22T00:07:07;8.30;;;6.40;;
77854;SDS011;67046;50.088;14.336;2023-06-22T00:07:40;11.20;;;6.00;;
77854;SDS011;67046;50.088;14.336;2023-06-22T00:08:12;12.30;;;6.60;;
77854;SDS011;67046;50.088;14.336;2023-06-22T00:08:45;9.50;;;6.40;;
77854;SDS011;67046;50.088;14.336;2023-06-22T00:09:17;10.00;;;6.00;;
77854;SDS011;67046;50.088;14.336;2023-06-22T00:09:48;8.90;;;6.00;;
77854;SDS011;67046;50.088;14.336;2023-06-22T00:10:20;9.80;;;6.30;;
77854;SDS011;67046;50.088;14.336;2023-06-22T00:10:52;8.30;;;5.80;;
77854;SDS011;67046;50.088;14.336;2023-06-22T00:11:24;10.40;;;6.70;;
77854;SDS011;67046;50.088;14.336;2023-06-22T00:11:56;10.30;;;6.00;;
77854;SDS011;67046;50.088;14.336;2023-06-22T00:12:28;7.90;;;5.70;;
77854;SDS011;67046;50.088;14.336;2023-06-22T00:13:00;8.60;;;6.40;;
77854;SDS011;67046;50.088;14.336;2023-06-22T00:13:32;7.70;;;5.80;;
77854;SDS011;67046;50.088;14.336;2023-06-22T00:14:37;9.50;;;5.70;;
77854;SDS011;67046;50.088;14.336;2023-06-22T00:15:09;7.60;;;5.80;;
77854;SDS011;67046;50.088;14.336;2023-06-22T00:15:41;7.50;;;5.70;;
77854;SDS011;67046;50.088;14.336;2023-06-22T00:16:14;8.70;;;6.00;;
77854;SDS011;67046;50.088;14.336;2023-06-22T00:16:46;8.50;;;5.80;;
77854;SDS011;67046;50.088;14.336;2023-06-22T00:17:20;9.60;;;6.00;;
77854;SDS011;67046;50.088;14.336;2023-06-22T00:17:52;10.30;;;5.80;;
77854;SDS011;67046;50.088;14.336;2023-06-22T00:18:24;8.20;;;5.80;;
77854;SDS011;67046;50.088;14.336;2023-06-22T00:18:59;9.80;;;5.70;;
77854;SDS011;67046;50.088;14.336;2023-06-22T00:19:34;10.30;;;6.40;;
77854;SDS011;67046;50.088;14.336;2023-06-22T00:20:07;10.30;;;5.90;;
77854;SDS011;67046;50.088;14.336;2023-06-22T00:20:41;8.60;;;5.90;;
77854;SDS011;67046;50.088;14.336;2023-06-22T00:21:13;7.80;;;5.60;;
77854;SDS011;67046;50.088;14.336;2023-06-22T00:21:46;9.10;;;5.70;;
77854;SDS011;67046;50.088;14.336;2023-06-22T00:22:18;11.10;;;6.10;;
77854;SDS011;67046;50.088;14.336;2023-06-22T00:22:59;11.10;;;6.30;;
77854;SDS011;67046;50.088;14.336;2023-06-22T00:23:32;10.00;;;6.30;;
77854;SDS011;67046;50.088;14.336;2023-06-22T00:24:05;8.40;;;6.40;;
77854;SDS011;67046;50.088;14.336;2023-06-22T00:24:38;8.60;;;5.90;;
77854;SDS011;67046;50.088;14.336;2023-06-22T00:25:10;10.50;;;6.10;;
77854;SDS011;67046;50.088;14.336;2023-06-22T00:25:43;11.00;;;6.80;;
77854;SDS011;67046;50.088;14.336;2023-06-22T00:26:15;7.70;;;5.60;;
77854;SDS011;67046;50.088;14.336;2023-06-22T00:26:50;10.90;;;5.50;;
77854;SDS011;67046;50.088;14.336;2023-06-22T00:27:22;8.90;;;5.80;;
77854;SDS011;67046;50.088;14.336;2023-06-22T00:27:54;9.20;;;6.10;;
77854;SDS011;67046;50.088;14.336;2023-06-22T00:28:26;9.40;;;6.10;;
77854;SDS011;67046;50.088;14.336;2023-06-22T00:28:58;8.70;;;6.10;;
77854;SDS011;67046;50.088;14.336;2023-06-22T00:29:30;7.20;;;5.80;;
77854;SDS011;67046;50.088;14.336;2023-06-22T00:30:02;9.20;;;6.10;;
77854;SDS011;67046;50.088;14.336;2023-06-22T00:30:35;8.90;;;5.90;;
77854;SDS011;67046;50.088;14.336;2023-06-22T00:31:07;9.90;;;5.90;;
77854;SDS011;67046;50.088;14.336;2023-06-22T00:31:39;8.30;;;6.50;;
77854;SDS011;67046;50.088;14.336;2023-06-22T00:32:11;8.20;;;5.90;;
77854;SDS011;67046;50.088;14.336;2023-06-22T00:32:43;10.20;;;5.70;;
77854;SDS011;67046;50.088;14.336;2023-06-22T00:33:16;9.10;;;5.40;;
77854;SDS011;67046;50.088;14.336;2023-06-22T00:33:48;9.80;;;6.50;;
77854;SDS011;67046;50.088;14.336;2023-06-22T00:34:22;8.00;;;5.80;;
77854;SDS011;67046;50.088;14.336;2023-06-22T00:34:54;7.60;;;5.80;;
77854;SDS011;67046;50.088;14.336;2023-06-22T00:35:26;10.60;;;6.20;;
77854;SDS011;67046;50.088;14.336;2023-06-22T00:36:02;8.40;;;5.90;;
77854;SDS011;67046;50.088;14.336;2023-06-22T00:36:35;9.00;;;5.80;;
77854;SDS011;67046;50.088;14.336;2023-06-22T00:37:07;9.30;;;5.80;;
77854;SDS011;67046;50.088;14.336;2023-06-22T00:37:39;9.10;;;6.20;;
77854;SDS011;67046;50.088;14.336;2023-06-22T00:38:14;9.20;;;5.90;;
77854;SDS011;67046;50.088;14.336;2023-06-22T00:38:46;8.20;;;5.40;;
77854;SDS011;67046;50.088;14.336;2023-06-22T00:39:18;7.70;;;5.90;;
77854;SDS011;67046;50.088;14.336;2023-06-22T00:39:51;8.10;;;6.00;;
77854;SDS011;67046;50.088;14.336;2023-06-22T00:40:23;9.60;;;5.70;;
77854;SDS011;67046;50.088;14.336;2023-06-22T00:40:55;7.30;;;5.80;;
77854;SDS011;67046;50.088;14.336;2023-06-22T00:41:27;9.70;;;5.70;;
77854;SDS011;67046;50.088;14.336;2023-06-22T00:42:00;10.30;;;6.20;;
77854;SDS011;67046;50.088;14.336;2023-06-22T00:42:32;11.60;;;6.00;;
77854;SDS011;67046;50.088;14.336;2023-06-22T00:43:04;8.60;;;5.50;;
77854;SDS011;67046;50.088;14.336;2023-06-22T00:43:37;10.30;;;6.20;;
77854;SDS011;67046;50.088;14.336;2023-06-22T00:44:09;6.80;;;5.10;;
77854;SDS011;67046;50.088;14.336;2023-06-22T00:44:41;8.10;;;5.80;;
77854;SDS011;67046;50.088;14.336;2023-06-22T00:45:13;11.30;;;6.00;;
77854;SDS011;67046;50.088;14.336;2023-06-22T00:45:45;8.20;;;6.50;;
77854;SDS011;67046;50.088;14.336;2023-06-22T00:46:49;11.70;;;6.40;;
77854;SDS011;67046;50.088;14.336;2023-06-22T00:47:21;7.90;;;5.70;;
77854;SDS011;67046;50.088;14.336;2023-06-22T00:48:27;11.30;;;6.60;;
77854;SDS011;67046;50.088;14.336;2023-06-22T00:48:59;9.40;;;6.40;;
77854;SDS011;67046;50.088;14.336;2023-06-22T00:49:31;9.40;;;5.90;;
77854;SDS011;67046;50.088;14.336;2023-06-22T00:50:05;7.50;;;6.30;;
77854;SDS011;67046;50.088;14.336;2023-06-22T00:50:40;9.30;;;5.80;;
77854;SDS011;67046;50.088;14.336;2023-06-22T00:51:12;8.50;;;6.10;;
77854;SDS011;67046;50.088;14.336;2023-06-22T00:51:44;9.00;;;6.00;;
77854;SDS011;67046;50.088;14.336;2023-06-22T00:52:17;9.90;;;6.20;;
77854;SDS011;67046;50.088;14.336;2023-06-22T00:52:53;9.70;;;5.80;;
77854;SDS011;67046;50.088;14.336;2023-06-22T00:53:30;11.40;;;6.90;;
77854;SDS011;67046;50.088;14.336;2023-06-22T00:54:06;7.80;;;5.70;;
77854;SDS011;67046;50.088;14.336;2023-06-22T00:54:38;9.00;;;6.40;;
77854;SDS011;67046;50.088;14.336;2023-06-22T00:55:10;10.30;;;5.80;;
77854;SDS011;67046;50.088;14.336;2023-06-22T00:55:43;9.70;;;6.50;;
77854;SDS011;67046;50.088;14.336;2023-06-22T00:56:19;9.40;;;6.40;;
77854;SDS011;67046;50.088;14.336;2023-06-22T00:56:56;8.30;;;6.20;;
77854;SDS011;67046;50.088;14.336;2023-06-22T00:57:29;11.40;;;6.50;;
77854;SDS011;67046;50.088;14.336;2023-06-22T00:58:02;7.20;;;6.00;;
77854;SDS011;67046;50.088;14.336;2023-06-22T00:58:37;6.50;;;5.80;;
77854;SDS011;67046;50.088;14.336;2023-06-22T00:59:09;10.00;;;6.00;;
77854;SDS011;67046;50.088;14.336;2023-06-22T00:59:44;8.70;;;6.30;;
77854;SDS011;67046;50.088;14.336;2023-06-22T01:00:17;10.60;;;6.20;;
77854;SDS011;67046;50.088;14.336;2023-06-22T01:00:51;8.80;;;6.10;;
77854;SDS011;67046;50.088;14.336;2023-06-22T01:01:23;6.70;;;6.10;;
77854;SDS011;67046;50.088;14.336;2023-06-22T01:01:55;8.80;;;6.20;;
77854;SDS011;67046;50.088;14.336;2023-06-22T01:02:27;6.40;;;5.50;;
77854;SDS011;67046;50.088;14.336;2023-06-22T01:03:01;8.00;;;5.70;;
77854;SDS011;67046;50.088;14.336;2023-06-22T01:03:34;12.00;;;6.00;;
77854;SDS011;67046;50.088;14.336;2023-06-22T01:04:07;7.60;;;5.90;;
77854;SDS011;67046;50.088;14.336;2023-06-22T01:04:39;8.20;;;5.70;;
77854;SDS011;67046;50.088;14.336;2023-06-22T01:05:13;7.60;;;5.90;;
77854;SDS011;67046;50.088;14.336;2023-06-22T01:05:45;12.10;;;6.60;;
77854;SDS011;67046;50.088;14.336;2023-06-22T01:06:20;10.90;;;6.40;;
77854;SDS011;67046;50.088;14.336;2023-06-22T01:07:03;8.60;;;6.70;;
77854;SDS011;67046;50.088;14.336;2023-06-22T01:09:40;10.50;;;6.40;;
77854;SDS011;67046;50.088;14.336;2023-06-22T01:10:03;9.30;;;6.20;;
77854;SDS011;67046;50.088;14.336;2023-06-22T01:11:38;11.60;;;6.20;;
77854;SDS011;67046;50.088;14.336;2023-06-22T01:12:17;9.20;;;5.90;;
77854;SDS011;67046;50.088;14.336;2023-06-22T01:12:53;7.30;;;5.60;;
77854;SDS011;67046;50.088;14.336;2023-06-22T01:13:45;7.00;;;5.50;;
77854;SDS011;67046;50.088;14.336;2023-06-22T01:14:55;7.70;;;5.30;;
77854;SDS011;67046;50.088;14.336;2023-06-22T01:15:39;11.50;;;6.30;;
77854;SDS011;67046;50.088;14.336;2023-06-22T01:16:18;7.30;;;6.00;;
77854;SDS011;67046;50.088;14.336;2023-06-22T01:16:54;7.00;;;5.20;;
77854;SDS011;67046;50.088;14.336;2023-06-22T01:17:28;8.90;;;6.00;;
77854;SDS011;67046;50.088;14.336;2023-06-22T01:18:03;8.20;;;5.60;;
77854;SDS011;67046;50.088;14.336;2023-06-22T01:18:36;7.00;;;6.00;;
77854;SDS011;67046;50.088;14.336;2023-06-22T01:19:35;7.80;;;5.80;;
77854;SDS011;67046;50.088;14.336;2023-06-22T01:20:07;8.20;;;6.20;;
77854;SDS011;67046;50.088;14.336;2023-06-22T01:20:43;10.80;;;6.40;;
77854;SDS011;67046;50.088;14.336;2023-06-22T01:21:16;9.30;;;6.60;;
77854;SDS011;67046;50.088;14.336;2023-06-22T01:21:50;7.80;;;5.90;;
77854;SDS011;67046;50.088;14.336;2023-06-22T01:22:25;8.90;;;6.00;;
77854;SDS011;67046;50.088;14.336;2023-06-22T01:23:10;10.50;;;6.10;;
77854;SDS011;67046;50.088;14.336;2023-06-22T01:25:43;9.30;;;5.70;;
77854;SDS011;67046;50.088;14.336;2023-06-22T01:27:53;10.60;;;5.90;;
77854;SDS011;67046;50.088;14.336;2023-06-22T01:29:05;9.20;;;6.50;;
77854;SDS011;67046;50.088;14.336;2023-06-22T01:29:41;9.50;;;6.10;;
77854;SDS011;67046;50.088;14.336;2023-06-22T01:30:15;8.40;;;6.10;;
77854;SDS011;67046;50.088;14.336;2023-06-22T01:30:50;8.30;;;6.30;;
77854;SDS011;67046;50.088;14.336;2023-06-22T01:31:35;10.10;;;6.90;;
77854;SDS011;67046;50.088;14.336;2023-06-22T01:32:39;8.10;;;6.20;;
77854;SDS011;67046;50.088;14.336;2023-06-22T01:33:13;9.50;;;5.90;;
77854;SDS011;67046;50.088;14.336;2023-06-22T01:33:47;6.70;;;6.10;;
77854;SDS011;67046;50.088;14.336;2023-06-22T01:34:23;9.40;;;6.40;;
77854;SDS011;67046;50.088;14.336;2023-06-22T01:34:56;9.30;;;6.30;;
77854;SDS011;67046;50.088;14.336;2023-06-22T01:35:31;7.20;;;5.80;;
77854;SDS011;67046;50.088;14.336;2023-06-22T01:36:04;8.10;;;5.90;;
77854;SDS011;67046;50.088;14.336;2023-06-22T01:36:38;8.50;;;6.70;;
77854;SDS011;67046;50.088;14.336;2023-06-22T01:37:11;8.50;;;6.40;;
77854;SDS011;67046;50.088;14.336;2023-06-22T01:37:44;11.90;;;7.00;;
77854;SDS011;67046;50.088;14.336;2023-06-22T01:38:18;9.70;;;6.70;;
77854;SDS011;67046;50.088;14.336;2023-06-22T01:39:24;11.40;;;6.50;;
77854;SDS011;67046;50.088;14.336;2023-06-22T01:39:56;11.10;;;6.50;;
77854;SDS011;67046;50.088;14.336;2023-06-22T01:40:30;11.10;;;6.50;;
77854;SDS011;67046;50.088;14.336;2023-06-22T01:41:04;9.70;;;6.30;;
77854;SDS011;67046;50.088;14.336;2023-06-22T01:41:37;9.10;;;7.00;;
77854;SDS011;67046;50.088;14.336;2023-06-22T01:42:10;9.30;;;6.70;;
77854;SDS011;67046;50.088;14.336;2023-06-22T01:42:43;8.20;;;6.60;;
77854;SDS011;67046;50.088;14.336;2023-06-22T01:43:16;8.90;;;6.60;;
77854;SDS011;67046;50.088;14.336;2023-06-22T01:43:49;8.70;;;6.60;;
77854;SDS011;67046;50.088;14.336;2023-06-22T01:44:21;9.90;;;6.80;;
77854;SDS011;67046;50.088;14.336;2023-06-22T01:44:54;11.20;;;6.60;;
77854;SDS011;67046;50.088;14.336;2023-06-22T01:45:28;10.90;;;6.70;;
77854;SDS011;67046;50.088;14.336;2023-06-22T01:46:02;10.50;;;6.90;;
77854;SDS011;67046;50.088;14.336;2023-06-22T01:46:35;8.20;;;6.60;;
77854;SDS011;67046;50.088;14.336;2023-06-22T01:47:07;10.10;;;6.90;;
77854;SDS011;67046;50.088;14.336;2023-06-22T01:47:39;10.90;;;6.60;;
77854;SDS011;67046;50.088;14.336;2023-06-22T01:48:12;11.50;;;6.90;;
77854;SDS011;67046;50.088;14.336;2023-06-22T01:48:44;13.00;;;7.30;;
77854;SDS011;67046;50.088;14.336;2023-06-22T01:49:18;9.70;;;6.90;;
77854;SDS011;67046;50.088;14.336;2023-06-22T01:49:50;8.20;;;6.50;;
77854;SDS011;67046;50.088;14.336;2023-06-22T01:50:23;12.90;;;7.40;;
77854;SDS011;67046;50.088;14.336;2023-06-22T01:50:56;13.10;;;6.90;;
77854;SDS011;67046;50.088;14.336;2023-06-22T01:51:28;8.10;;;7.10;;
77854;SDS011;67046;50.088;14.336;2023-06-22T01:52:02;10.50;;;7.10;;
77854;SDS011;67046;50.088;14.336;2023-06-22T01:52:34;9.10;;;6.60;;
77854;SDS011;67046;50.088;14.336;2023-06-22T01:53:06;10.20;;;6.90;;
77854;SDS011;67046;50.088;14.336;2023-06-22T01:53:39;8.50;;;6.50;;
77854;SDS011;67046;50.088;14.336;2023-06-22T01:54:11;9.60;;;6.20;;
77854;SDS011;67046;50.088;14.336;2023-06-22T01:54:43;12.50;;;6.90;;
77854;SDS011;67046;50.088;14.336;2023-06-22T01:55:15;10.20;;;6.90;;
77854;SDS011;67046;50.088;14.336;2023-06-22T01:55:47;9.20;;;7.10;;
77854;SDS011;67046;50.088;14.336;2023-06-22T01:56:19;8.50;;;7.00;;
77854;SDS011;67046;50.088;14.336;2023-06-22T01:56:51;9.20;;;6.50;;
77854;SDS011;67046;50.088;14.336;2023-06-22T01:57:23;7.70;;;6.80;;
77854;SDS011;67046;50.088;14.336;2023-06-22T01:57:56;9.00;;;7.00;;
77854;SDS011;67046;50.088;14.336;2023-06-22T01:58:28;11.70;;;7.00;;
77854;SDS011;67046;50.088;14.336;2023-06-22T01:59:09;9.90;;;6.60;;
77854;SDS011;67046;50.088;14.336;2023-06-22T02:00:44;8.80;;;6.30;;
77854;SDS011;67046;50.088;14.336;2023-06-22T02:01:44;10.00;;;7.00;;
77854;SDS011;67046;50.088;14.336;2023-06-22T02:02:27;6.90;;;6.20;;
77854;SDS011;67046;50.088;14.336;2023-06-22T02:03:17;10.00;;;6.30;;
77854;SDS011;67046;50.088;14.336;2023-06-22T02:04:00;10.40;;;6.60;;
77854;SDS011;67046;50.088;14.336;2023-06-22T02:05:15;10.60;;;7.30;;
77854;SDS011;67046;50.088;14.336;2023-06-22T02:05:49;7.80;;;7.00;;
77854;SDS011;67046;50.088;14.336;2023-06-22T02:06:31;9.60;;;7.30;;
77854;SDS011;67046;50.088;14.336;2023-06-22T02:07:09;10.30;;;7.20;;
77854;SDS011;67046;50.088;14.336;2023-06-22T02:08:57;9.00;;;6.60;;
77854;SDS011;67046;50.088;14.336;2023-06-22T02:09:32;8.60;;;6.50;;
77854;SDS011;67046;50.088;14.336;2023-06-22T02:10:09;8.90;;;6.90;;
77854;SDS011;67046;50.088;14.336;2023-06-22T02:10:45;8.70;;;6.50;;
77854;SDS011;67046;50.088;14.336;2023-06-22T02:11:18;8.10;;;6.10;;
77854;SDS011;67046;50.088;14.336;2023-06-22T02:11:52;7.50;;;6.60;;
77854;SDS011;67046;50.088;14.336;2023-06-22T02:12:27;10.10;;;6.70;;
77854;SDS011;67046;50.088;14.336;2023-06-22T02:13:01;9.80;;;6.60;;
77854;SDS011;67046;50.088;14.336;2023-06-22T02:13:34;8.80;;;6.70;;
77854;SDS011;67046;50.088;14.336;2023-06-22T02:14:07;8.10;;;6.90;;
77854;SDS011;67046;50.088;14.336;2023-06-22T02:14:40;8.60;;;6.90;;
77854;SDS011;67046;50.088;14.336;2023-06-22T02:15:12;11.80;;;7.00;;
77854;SDS011;67046;50.088;14.336;2023-06-22T02:15:46;9.90;;;6.90;;
77854;SDS011;67046;50.088;14.336;2023-06-22T02:16:19;8.60;;;7.20;;
77854;SDS011;67046;50.088;14.336;2023-06-22T02:16:52;11.50;;;6.70;;
77854;SDS011;67046;50.088;14.336;2023-06-22T02:17:24;10.10;;;6.90;;
77854;SDS011;67046;50.088;14.336;2023-06-22T02:17:58;8.50;;;6.80;;
77854;SDS011;67046;50.088;14.336;2023-06-22T02:18:30;7.60;;;6.40;;
77854;SDS011;67046;50.088;14.336;2023-06-22T02:19:02;11.00;;;8.00;;
77854;SDS011;67046;50.088;14.336;2023-06-22T02:19:38;10.40;;;6.70;;
77854;SDS011;67046;50.088;14.336;2023-06-22T02:20:13;8.70;;;7.50;;
77854;SDS011;67046;50.088;14.336;2023-06-22T02:20:46;10.40;;;7.50;;
77854;SDS011;67046;50.088;14.336;2023-06-22T02:21:51;8.80;;;7.00;;
77854;SDS011;67046;50.088;14.336;2023-06-22T02:22:23;7.80;;;6.20;;
77854;SDS011;67046;50.088;14.336;2023-06-22T02:23:27;7.90;;;6.40;;
77854;SDS011;67046;50.088;14.336;2023-06-22T02:23:59;8.20;;;6.40;;
77854;SDS011;67046;50.088;14.336;2023-06-22T02:25:05;9.10;;;6.80;;
77854;SDS011;67046;50.088;14.336;2023-06-22T02:25:37;9.10;;;6.60;;
77854;SDS011;67046;50.088;14.336;2023-06-22T02:26:09;8.90;;;7.20;;
77854;SDS011;67046;50.088;14.336;2023-06-22T02:26:43;8.90;;;7.00;;
77854;SDS011;67046;50.088;14.336;2023-06-22T02:27:17;8.60;;;6.60;;
77854;SDS011;67046;50.088;14.336;2023-06-22T02:27:49;9.00;;;7.60;;
77854;SDS011;67046;50.088;14.336;2023-06-22T02:28:21;10.90;;;7.30;;
77854;SDS011;67046;50.088;14.336;2023-06-22T02:28:53;8.20;;;6.90;;
77854;SDS011;67046;50.088;14.336;2023-06-22T02:29:25;9.50;;;7.20;;
77854;SDS011;67046;50.088;14.336;2023-06-22T02:29:58;10.50;;;7.00;;
77854;SDS011;67046;50.088;14.336;2023-06-22T02:30:30;10.60;;;7.50;;
77854;SDS011;67046;50.088;14.336;2023-06-22T02:31:03;9.90;;;7.00;;
77854;SDS011;67046;50.088;14.336;2023-06-22T02:32:07;9.30;;;6.90;;
77854;SDS011;67046;50.088;14.336;2023-06-22T02:32:42;9.40;;;7.60;;
77854;SDS011;67046;50.088;14.336;2023-06-22T02:33:14;9.30;;;7.40;;
77854;SDS011;67046;50.088;14.336;2023-06-22T02:33:46;10.80;;;7.10;;
77854;SDS011;67046;50.088;14.336;2023-06-22T02:34:20;9.10;;;6.90;;
77854;SDS011;67046;50.088;14.336;2023-06-22T02:34:53;8.60;;;6.70;;
77854;SDS011;67046;50.088;14.336;2023-06-22T02:35:28;10.50;;;7.30;;
77854;SDS011;67046;50.088;14.336;2023-06-22T02:36:07;10.00;;;7.10;;
77854;SDS011;67046;50.088;14.336;2023-06-22T02:36:40;8.30;;;6.60;;
77854;SDS011;67046;50.088;14.336;2023-06-22T02:37:22;8.60;;;7.10;;
77854;SDS011;67046;50.088;14.336;2023-06-22T02:37:59;10.20;;;7.10;;
77854;SDS011;67046;50.088;14.336;2023-06-22T02:38:33;9.40;;;7.10;;
77854;SDS011;67046;50.088;14.336;2023-06-22T02:39:06;9.10;;;7.40;;
77854;SDS011;67046;50.088;14.336;2023-06-22T02:39:38;10.70;;;7.70;;
77854;SDS011;67046;50.088;14.336;2023-06-22T02:40:10;10.10;;;7.20;;
77854;SDS011;67046;50.088;14.336;2023-06-22T02:40:42;9.90;;;7.40;;
77854;SDS011;67046;50.088;14.336;2023-06-22T02:41:17;10.00;;;7.40;;
77854;SDS011;67046;50.088;14.336;2023-06-22T02:41:50;11.20;;;7.90;;
77854;SDS011;67046;50.088;14.336;2023-06-22T02:42:26;8.90;;;8.00;;
77854;SDS011;67046;50.088;14.336;2023-06-22T02:42:58;9.00;;;7.20;;
77854;SDS011;67046;50.088;14.336;2023-06-22T02:43:33;8.50;;;7.00;;
77854;SDS011;67046;50.088;14.336;2023-06-22T02:44:05;9.20;;;6.80;;
77854;SDS011;67046;50.088;14.336;2023-06-22T02:44:37;8.20;;;7.00;;
77854;SDS011;67046;50.088;14.336;2023-06-22T02:45:09;10.70;;;7.70;;
77854;SDS011;67046;50.088;14.336;2023-06-22T02:45:41;10.90;;;7.40;;
77854;SDS011;67046;50.088;14.336;2023-06-22T02:46:14;8.40;;;7.10;;
77854;SDS011;67046;50.088;14.336;2023-06-22T02:46:48;10.40;;;8.30;;
77854;SDS011;67046;50.088;14.336;2023-06-22T02:47:21;10.20;;;6.40;;
77854;SDS011;67046;50.088;14.336;2023-06-22T02:47:53;12.00;;;7.60;;
77854;SDS011;67046;50.088;14.336;2023-06-22T02:48:25;8.70;;;7.10;;
77854;SDS011;67046;50.088;14.336;2023-06-22T02:49:29;8.60;;;6.90;;
77854;SDS011;67046;50.088;14.336;2023-06-22T02:50:01;7.70;;;6.60;;
77854;SDS011;67046;50.088;14.336;2023-06-22T02:51:05;8.60;;;6.60;;
77854;SDS011;67046;50.088;14.336;2023-06-22T02:51:41;10.70;;;7.20;;
77854;SDS011;67046;50.088;14.336;2023-06-22T02:52:16;10.00;;;7.40;;
77854;SDS011;67046;50.088;14.336;2023-06-22T02:52:48;10.00;;;7.20;;
77854;SDS011;67046;50.088;14.336;2023-06-22T02:53:21;9.60;;;7.20;;
77854;SDS011;67046;50.088;14.336;2023-06-22T02:53:52;9.20;;;7.00;;
77854;SDS011;67046;50.088;14.336;2023-06-22T02:54:29;9.20;;;7.50;;
77854;SDS011;67046;50.088;14.336;2023-06-22T02:55:01;9.90;;;7.70;;
77854;SDS011;67046;50.088;14.336;2023-06-22T02:55:32;8.20;;;7.10;;
77854;SDS011;67046;50.088;14.336;2023-06-22T02:56:05;8.60;;;7.60;;
77854;SDS011;67046;50.088;14.336;2023-06-22T02:56:37;9.60;;;7.90;;
77854;SDS011;67046;50.088;14.336;2023-06-22T02:57:08;9.70;;;7.20;;
77854;SDS011;67046;50.088;14.336;2023-06-22T02:57:44;8.50;;;7.30;;
77854;SDS011;67046;50.088;14.336;2023-06-22T02:58:18;7.70;;;6.80;;
77854;SDS011;67046;50.088;14.336;2023-06-22T02:58:50;9.90;;;6.70;;
77854;SDS011;67046;50.088;14.336;2023-06-22T02:59:23;9.90;;;7.90;;
77854;SDS011;67046;50.088;14.336;2023-06-22T02:59:55;9.00;;;6.60;;
77854;SDS011;67046;50.088;14.336;2023-06-22T03:00:27;8.60;;;7.50;;
77854;SDS011;67046;50.088;14.336;2023-06-22T03:01:02;8.00;;;7.00;;
77854;SDS011;67046;50.088;14.336;2023-06-22T03:01:36;8.10;;;7.30;;
77854;SDS011;67046;50.088;14.336;2023-06-22T03:02:11;9.60;;;7.10;;
77854;SDS011;67046;50.088;14.336;2023-06-22T03:02:44;11.10;;;7.00;;
77854;SDS011;67046;50.088;14.336;2023-06-22T03:03:16;10.30;;;7.10;;
77854;SDS011;67046;50.088;14.336;2023-06-22T03:03:48;10.70;;;7.10;;
77854;SDS011;67046;50.088;14.336;2023-06-22T03:04:20;8.60;;;7.00;;
77854;SDS011;67046;50.088;14.336;2023-06-22T03:04:52;10.10;;;7.10;;
77854;SDS011;67046;50.088;14.336;2023-06-22T03:05:25;8.30;;;7.40;;
77854;SDS011;67046;50.088;14.336;2023-06-22T03:05:57;8.80;;;7.30;;
77854;SDS011;67046;50.088;14.336;2023-06-22T03:06:29;10.00;;;7.40;;
77854;SDS011;67046;50.088;14.336;2023-06-22T03:07:01;8.50;;;7.30;;
77854;SDS011;67046;50.088;14.336;2023-06-22T03:07:36;10.90;;;7.70;;
77854;SDS011;67046;50.088;14.336;2023-06-22T03:08:08;9.20;;;7.70;;
77854;SDS011;67046;50.088;14.336;2023-06-22T03:08:43;9.50;;;8.10;;
77854;SDS011;67046;50.088;14.336;2023-06-22T03:09:14;10.50;;;8.30;;
77854;SDS011;67046;50.088;14.336;2023-06-22T03:09:48;9.80;;;7.70;;
77854;SDS011;67046;50.088;14.336;2023-06-22T03:10:20;8.50;;;7.00;;
77854;SDS011;67046;50.088;14.336;2023-06-22T03:10:51;9.80;;;7.70;;
77854;SDS011;67046;50.088;14.336;2023-06-22T03:11:23;12.30;;;7.90;;
77854;SDS011;67046;50.088;14.336;2023-06-22T03:11:55;8.10;;;6.50;;
77854;SDS011;67046;50.088;14.336;2023-06-22T03:12:28;9.80;;;7.50;;
77854;SDS011;67046;50.088;14.336;2023-06-22T03:13:02;10.40;;;8.50;;
77854;SDS011;67046;50.088;14.336;2023-06-22T03:13:35;8.30;;;7.10;;
77854;SDS011;67046;50.088;14.336;2023-06-22T03:14:09;8.40;;;7.10;;
77854;SDS011;67046;50.088;14.336;2023-06-22T03:14:41;8.60;;;6.90;;
77854;SDS011;67046;50.088;14.336;2023-06-22T03:15:14;8.60;;;7.10;;
77854;SDS011;67046;50.088;14.336;2023-06-22T03:15:49;8.70;;;7.40;;
77854;SDS011;67046;50.088;14.336;2023-06-22T03:16:22;8.10;;;6.90;;
77854;SDS011;67046;50.088;14.336;2023-06-22T03:16:55;8.70;;;7.00;;
77854;SDS011;67046;50.088;14.336;2023-06-22T03:17:33;7.30;;;6.40;;
77854;SDS011;67046;50.088;14.336;2023-06-22T03:18:07;8.00;;;6.70;;
77854;SDS011;67046;50.088;14.336;2023-06-22T03:18:39;10.10;;;7.10;;
77854;SDS011;67046;50.088;14.336;2023-06-22T03:19:12;9.00;;;6.60;;
77854;SDS011;67046;50.088;14.336;2023-06-22T03:19:44;8.90;;;6.80;;
77854;SDS011;67046;50.088;14.336;2023-06-22T03:20:20;9.70;;;7.20;;
77854;SDS011;67046;50.088;14.336;2023-06-22T03:20:52;7.90;;;6.50;;
77854;SDS011;67046;50.088;14.336;2023-06-22T03:21:27;9.90;;;7.50;;
77854;SDS011;67046;50.088;14.336;2023-06-22T03:22:01;9.10;;;6.70;;
77854;SDS011;67046;50.088;14.336;2023-06-22T03:22:36;9.60;;;7.10;;
77854;SDS011;67046;50.088;14.336;2023-06-22T03:23:10;8.30;;;7.10;;
77854;SDS011;67046;50.088;14.336;2023-06-22T03:23:44;7.80;;;6.80;;
77854;SDS011;67046;50.088;14.336;2023-06-22T03:24:19;10.80;;;7.10;;
77854;SDS011;67046;50.088;14.336;2023-06-22T03:24:53;8.10;;;7.00;;
77854;SDS011;67046;50.088;14.336;2023-06-22T03:25:26;8.20;;;6.90;;
77854;SDS011;67046;50.088;14.336;2023-06-22T03:26:01;9.50;;;7.20;;
77854;SDS011;67046;50.088;14.336;2023-06-22T03:26:35;8.90;;;6.70;;
77854;SDS011;67046;50.088;14.336;2023-06-22T03:27:09;9.10;;;7.20;;
77854;SDS011;67046;50.088;14.336;2023-06-22T03:27:43;8.60;;;6.30;;
77854;SDS011;67046;50.088;14.336;2023-06-22T03:28:17;7.10;;;6.20;;
77854;SDS011;67046;50.088;14.336;2023-06-22T03:29:21;9.50;;;7.30;;
77854;SDS011;67046;50.088;14.336;2023-06-22T03:29:53;10.30;;;7.40;;
77854;SDS011;67046;50.088;14.336;2023-06-22T03:30:25;9.20;;;6.70;;
77854;SDS011;67046;50.088;14.336;2023-06-22T03:30:57;8.50;;;6.70;;
77854;SDS011;67046;50.088;14.336;2023-06-22T03:31:30;8.50;;;7.20;;
77854;SDS011;67046;50.088;14.336;2023-06-22T03:32:02;10.00;;;7.70;;
77854;SDS011;67046;50.088;14.336;2023-06-22T03:32:36;11.60;;;7.20;;
77854;SDS011;67046;50.088;14.336;2023-06-22T03:33:09;7.30;;;6.60;;
77854;SDS011;67046;50.088;14.336;2023-06-22T03:33:40;9.60;;;6.70;;
77854;SDS011;67046;50.088;14.336;2023-06-22T03:34:12;10.10;;;7.20;;
77854;SDS011;67046;50.088;14.336;2023-06-22T03:34:44;9.50;;;7.80;;
77854;SDS011;67046;50.088;14.336;2023-06-22T03:35:18;8.40;;;7.10;;
77854;SDS011;67046;50.088;14.336;2023-06-22T03:35:50;7.60;;;6.70;;
77854;SDS011;67046;50.088;14.336;2023-06-22T03:36:22;8.20;;;7.00;;